North Providence, Rhode Island
Current Conditions -  °F | °C
As of 1:15 PM on Friday 31 Oct 2014 (Local Time) from KSFZ Reporting Station
Overcast Overcast  
Wind Chill: 54°   Ceiling: 3900
Heat Index: 54°   Visibility: 10mi
Dew Point: 36°   Wind: 9mph
Humidity: 51%   Direction: 80°E
Pressure: 29.96"   Gusts: NA
Location:  41.86°N, 71.48°W
Report Text: KSFZ 311715Z 08008KT 10SM BKN039 BKN046 OVC050 12/02 A2996 RMK AO1
Loading
Personal Weather Stations






























Interactive Weather Map New forecast layout! Learn more

10-Day Weather Forecast

Advertisements
Track Severe Weather on mobile